Time;durP1;ratioP1;P1;durP2;ratioP2;P2;SDS_P1;SDS_P2;PMS_P1;PMS_P2;Temp;Humidity;BMP_temperature;BMP_pressure;BME280_temperature;BME280_humidity;BME280_pressure;Samples;Min_cycle;Max_cycle;Signal;HPM_P1;HPM_P2
2023/02/10 00:01:41;;;;;;;7.70;3.00;;;;;;;-12.16;70.74;97560.14;106581;1275;25734;-62
2023/02/10 00:04:11;;;;;;;6.60;3.30;;;;;;;-12.19;70.88;97564.77;106667;1275;24264;-62
2023/02/10 00:06:42;;;;;;;5.10;2.30;;;;;;;-12.11;70.94;97561.19;106581;1275;23720;-62
2023/02/10 00:09:13;;;;;;;6.00;2.60;;;;;;;-12.09;70.56;97557.23;106576;1275;22758;-62
2023/02/10 00:11:57;;;;;;;5.70;2.50;;;;;;;-12.06;70.61;97554.88;106623;1275;24032;-62
2023/02/10 00:14:27;;;;;;;5.90;2.60;;;;;;;-11.89;70.96;97556.30;106589;1275;24203;-62
2023/02/10 00:16:57;;;;;;;6.60;2.30;;;;;;;-11.90;70.91;97559.52;106602;1275;22647;-62
2023/02/10 00:19:27;;;;;;;4.80;1.70;;;;;;;-11.94;70.48;97561.80;106461;1275;22663;-62
2023/02/10 00:21:55;;;;;;;5.00;2.30;;;;;;;-12.02;69.77;97562.90;106594;1275;22665;-62
2023/02/10 00:24:24;;;;;;;4.60;1.70;;;;;;;-12.17;69.40;97563.24;106614;1275;22631;-62
2023/02/10 00:26:52;;;;;;;6.20;2.10;;;;;;;-12.20;69.93;97562.47;106594;1266;25027;-62
2023/02/10 00:29:21;;;;;;;3.50;1.20;;;;;;;-12.35;69.53;97559.98;106641;1275;24537;-62
2023/02/10 00:31:49;;;;;;;3.30;1.70;;;;;;;-12.38;69.92;97559.48;106604;1275;25539;-61
2023/02/10 00:34:17;;;;;;;2.60;1.50;;;;;;;-12.36;70.11;97558.18;106546;1275;22806;-62
2023/02/10 00:36:49;;;;;;;5.10;1.90;;;;;;;-12.44;69.74;97553.80;106646;1275;22864;-62
2023/02/10 00:39:18;;;;;;;4.60;1.70;;;;;;;-12.45;70.08;97547.95;106622;1275;22691;-62
2023/02/10 00:41:46;;;;;;;3.70;1.60;;;;;;;-12.38;70.31;97549.17;106506;1275;22548;-62
2023/02/10 00:44:14;;;;;;;5.50;2.00;;;;;;;-12.44;70.20;97546.39;106607;1275;22560;-62
2023/02/10 00:46:42;;;;;;;4.40;2.00;;;;;;;-12.52;70.41;97544.65;106488;1269;26166;-62
2023/02/10 00:49:12;;;;;;;5.30;2.20;;;;;;;-12.47;71.07;97541.27;106614;1275;22848;-62
2023/02/10 00:51:40;;;;;;;6.80;2.60;;;;;;;-12.43;71.13;97541.23;106636;1275;22758;-62
2023/02/10 00:54:12;;;;;;;3.60;1.90;;;;;;;-12.50;70.37;97540.52;106662;1275;24332;-62
2023/02/10 00:56:41;;;;;;;7.10;3.40;;;;;;;-12.44;70.96;97539.59;106657;1275;25682;-62
2023/02/10 00:59:12;;;;;;;4.50;2.00;;;;;;;-12.36;71.07;97538.64;106651;1275;22689;-62
2023/02/10 01:01:41;;;;;;;4.90;1.90;;;;;;;-12.41;70.45;97539.17;106536;1275;22929;-62
2023/02/10 01:04:10;;;;;;;5.30;2.20;;;;;;;-12.29;71.04;97543.23;106585;1270;22624;-62
2023/02/10 01:06:38;;;;;;;6.20;2.40;;;;;;;-12.25;70.36;97542.17;106641;1275;22665;-61
2023/02/10 01:09:06;;;;;;;11.40;4.60;;;;;;;-12.33;69.89;97540.84;106570;1275;22839;-62
2023/02/10 01:11:34;;;;;;;5.50;2.60;;;;;;;-12.49;69.96;97542.12;106618;1275;24262;-62
2023/02/10 01:14:03;;;;;;;4.50;1.40;;;;;;;-12.58;70.79;97540.17;106709;1275;24259;-62
2023/02/10 01:16:32;;;;;;;4.40;2.00;;;;;;;-12.63;70.60;97538.86;106663;1275;24433;-62
2023/02/10 01:19:01;;;;;;;3.80;1.70;;;;;;;-12.61;70.98;97535.98;106600;1275;22657;-62
2023/02/10 01:21:31;;;;;;;4.50;1.70;;;;;;;-12.62;70.77;97536.23;106584;1275;24287;-62
2023/02/10 01:23:59;;;;;;;6.20;3.20;;;;;;;-12.60;71.34;97535.42;106578;1275;24116;-62
2023/02/10 01:26:28;;;;;;;3.50;1.90;;;;;;;-12.63;70.96;97534.11;106568;1275;22633;-62
2023/02/10 01:28:58;;;;;;;2.30;1.30;;;;;;;-12.67;70.67;97537.98;106634;1275;24231;-63
2023/02/10 01:31:26;;;;;;;2.40;1.20;;;;;;;-12.71;70.56;97537.23;106669;1275;22691;-62
2023/02/10 01:33:55;;;;;;;2.50;1.20;;;;;;;-12.64;71.08;97540.30;106567;1275;24395;-62
2023/02/10 01:36:24;;;;;;;3.10;1.80;;;;;;;-12.64;70.65;97539.30;106603;1275;24560;-62
2023/02/10 01:38:52;;;;;;;5.10;2.10;;;;;;;-12.69;70.84;97539.26;106595;1275;22965;-62
2023/02/10 01:41:23;;;;;;;5.30;2.70;;;;;;;-12.66;71.10;97538.40;106568;1275;25488;-62
2023/02/10 01:44:03;;;;;;;14.80;5.10;;;;;;;-12.59;70.95;97540.39;106514;1275;22791;-62
2023/02/10 01:46:34;;;;;;;1.90;1.20;;;;;;;-12.62;70.23;97530.98;106634;1275;22666;-62
2023/02/10 01:49:14;;;;;;;2.20;1.20;;;;;;;-12.64;70.66;97526.02;106678;1275;24264;-62
2023/02/10 01:51:59;;;;;;;1.50;1.20;;;;;;;-12.71;70.06;97529.71;106617;1275;22649;-62
2023/02/10 01:54:33;;;;;;;2.40;1.20;;;;;;;-12.77;70.60;97527.23;106650;1275;25543;-62
2023/02/10 01:57:02;;;;;;;3.80;1.30;;;;;;;-12.80;70.87;97521.52;106553;1275;22693;-62
2023/02/10 01:59:33;;;;;;;3.70;1.40;;;;;;;-12.83;70.40;97516.82;106486;1274;22615;-62
2023/02/10 02:02:06;;;;;;;7.90;4.10;;;;;;;-12.85;70.56;97516.45;106601;1275;22639;-62
2023/02/10 02:04:59;;;;;;;3.30;1.80;;;;;;;-12.94;70.28;97515.97;106587;1275;22632;-62
2023/02/10 02:07:32;;;;;;;1.60;1.20;;;;;;;-12.93;70.52;97512.30;106607;1275;22150;-62
2023/02/10 02:10:02;;;;;;;2.70;1.10;;;;;;;-12.99;70.93;97516.20;106579;1275;22701;-62
2023/02/10 02:12:56;;;;;;;2.70;1.20;;;;;;;-12.92;70.94;97511.35;106625;1275;22554;-61
2023/02/10 02:15:47;;;;;;;;;;;;;;;-12.88;71.33;97505.70;106688;1275;23666;-62
2023/02/10 02:18:32;;;;;;;2.70;1.50;;;;;;;-12.93;71.40;97511.32;106508;1275;22527;-62
2023/02/10 02:21:27;;;;;;;2.10;1.30;;;;;;;-12.97;71.09;97512.42;106560;1275;22638;-62
2023/02/10 02:24:27;;;;;;;1.50;1.30;;;;;;;-12.86;71.30;97509.07;106595;1275;22780;-62
2023/02/10 02:27:14;;;;;;;2.30;1.20;;;;;;;-12.81;70.67;97507.20;106738;1275;22704;-62
2023/02/10 02:29:52;;;;;;;1.20;0.80;;;;;;;-12.92;70.26;97508.86;106639;1275;24264;-62
2023/02/10 02:32:21;;;;;;;2.00;0.80;;;;;;;-13.02;70.07;97514.60;106519;1275;22790;-62
2023/02/10 02:35:02;;;;;;;5.10;2.40;;;;;;;-13.14;70.18;97516.11;106581;1275;24352;-62
2023/02/10 02:37:38;;;;;;;7.90;4.30;;;;;;;-13.25;71.37;97517.83;106606;1268;22594;-62
2023/02/10 02:40:07;;;;;;;4.10;1.60;;;;;;;-13.32;71.11;97522.02;106551;1275;24320;-62
2023/02/10 02:42:35;;;;;;;1.70;0.70;;;;;;;-13.37;71.18;97518.67;106636;1275;25773;-61
2023/02/10 02:45:06;;;;;;;1.60;0.80;;;;;;;-13.45;71.02;97523.46;106563;1275;24178;-62
2023/02/10 02:47:57;;;;;;;2.30;1.10;;;;;;;-13.33;71.88;97519.77;106607;1275;24383;-61
2023/02/10 02:50:28;;;;;;;5.30;2.90;;;;;;;-13.21;71.89;97517.73;106571;1275;22606;-62
2023/02/10 02:53:32;;;;;;;10.60;4.80;;;;;;;-13.15;71.67;97519.90;106641;1275;22654;-62
2023/02/10 02:56:15;;;;;;;;;;;;;;;-13.10;71.11;97523.33;106665;1275;24259;-62
2023/02/10 02:59:04;;;;;;;2.90;1.20;;;;;;;-13.10;71.53;97521.13;106541;1275;22846;-62
2023/02/10 03:01:39;;;;;;;2.20;0.90;;;;;;;-13.11;70.85;97521.17;106568;1264;25455;-62
2023/02/10 03:04:09;;;;;;;2.30;1.20;;;;;;;-13.22;70.84;97523.36;106653;1275;25476;-62
2023/02/10 03:06:40;;;;;;;3.30;1.50;;;;;;;-13.28;70.89;97529.98;106675;1275;22758;-62
2023/02/10 03:09:09;;;;;;;4.30;2.50;;;;;;;-13.27;71.52;97528.86;106573;1275;22690;-61
2023/02/10 03:11:37;;;;;;;5.00;1.50;;;;;;;-13.24;71.36;97531.03;106575;1275;22658;-62
2023/02/10 03:14:06;;;;;;;1.50;0.80;;;;;;;-13.30;70.78;97532.42;106582;1275;22573;-62
2023/02/10 03:16:34;;;;;;;1.70;0.70;;;;;;;-13.44;70.92;97536.05;106578;1275;25601;-62
2023/02/10 03:19:02;;;;;;;1.50;0.70;;;;;;;-13.55;70.89;97542.42;106584;1275;21808;-61
2023/02/10 03:21:30;;;;;;;1.90;1.40;;;;;;;-13.50;71.34;97550.14;106595;1275;24196;-62
2023/02/10 03:24:00;;;;;;;9.30;4.00;;;;;;;-13.61;71.25;97552.25;106571;1275;22580;-62
2023/02/10 03:26:29;;;;;;;2.00;0.90;;;;;;;-13.67;71.41;97549.89;106641;1264;25282;-62
2023/02/10 03:28:57;;;;;;;2.20;1.10;;;;;;;-13.66;71.83;97552.04;106622;1275;22669;-62
2023/02/10 03:31:25;;;;;;;2.00;0.80;;;;;;;-13.48;72.22;97551.70;106637;1275;22670;-62
2023/02/10 03:33:54;;;;;;;1.90;1.10;;;;;;;-13.41;71.68;97553.18;106581;1275;22561;-61
2023/02/10 03:36:22;;;;;;;5.20;1.00;;;;;;;-13.43;71.33;97558.00;106577;1275;22567;-61
2023/02/10 03:38:51;;;;;;;2.10;0.70;;;;;;;-13.36;71.84;97557.91;106581;1275;22576;-62
2023/02/10 03:41:19;;;;;;;7.70;2.40;;;;;;;-13.31;71.51;97560.75;106631;1275;25302;-61
2023/02/10 03:43:47;;;;;;;3.70;1.80;;;;;;;-13.23;71.37;97565.59;106579;1275;24904;-62
2023/02/10 03:46:15;;;;;;;4.40;2.00;;;;;;;-13.15;71.25;97564.38;106606;1275;24108;-62
2023/02/10 03:48:44;;;;;;;4.20;2.10;;;;;;;-13.14;70.77;97563.30;106642;1258;23216;-62
2023/02/10 03:51:12;;;;;;;4.70;1.20;;;;;;;-13.24;70.29;97559.62;106568;1275;22615;-62
2023/02/10 03:53:40;;;;;;;64.20;24.40;;;;;;;-13.40;70.51;97566.73;106569;1275;25503;-61
2023/02/10 03:56:08;;;;;;;2.90;1.20;;;;;;;-13.51;70.44;97562.91;106570;1275;24218;-62
2023/02/10 03:58:37;;;;;;;1.40;0.90;;;;;;;-13.57;70.69;97560.13;106616;1275;22579;-61
2023/02/10 04:01:14;;;;;;;33.70;14.60;;;;;;;-13.58;71.17;97556.95;106581;1275;25707;-61
2023/02/10 04:03:43;;;;;;;7.30;2.40;;;;;;;-13.69;71.53;97560.89;106593;1275;22549;-62
2023/02/10 04:06:12;;;;;;;1.70;1.00;;;;;;;-13.70;71.62;97561.98;106639;1275;24286;-61
2023/02/10 04:08:40;;;;;;;2.40;0.80;;;;;;;-13.68;71.64;97562.74;106615;1268;22586;-61
2023/02/10 04:11:09;;;;;;;1.80;0.90;;;;;;;-13.63;71.83;97560.98;106619;1275;22640;-61
2023/02/10 04:13:37;;;;;;;2.80;1.30;;;;;;;-13.49;72.09;97557.77;106565;1275;22568;-63
2023/02/10 04:16:08;;;;;;;3.60;1.10;;;;;;;-13.35;72.00;97557.12;106621;1275;26946;-62
2023/02/10 04:18:38;;;;;;;1.80;0.90;;;;;;;-13.35;71.40;97549.42;106569;1275;22569;-62
2023/02/10 04:21:09;;;;;;;1.20;0.90;;;;;;;-13.35;71.58;97547.89;106574;1275;22601;-62
2023/02/10 04:23:37;;;;;;;7.40;3.20;;;;;;;-13.38;71.45;97545.69;106606;1275;22759;-61
2023/02/10 04:26:05;;;;;;;7.30;3.20;;;;;;;-13.26;71.71;97539.98;106681;1263;24196;-62
2023/02/10 04:28:34;;;;;;;1.20;0.70;;;;;;;-13.21;70.46;97537.90;106635;1275;22672;-61
2023/02/10 04:31:05;;;;;;;2.00;1.00;;;;;;;-13.19;70.80;97536.23;106621;1275;25256;-62
2023/02/10 04:33:33;;;;;;;1.60;0.70;;;;;;;-13.12;70.81;97530.38;106617;1275;25510;-61
2023/02/10 04:36:03;;;;;;;0.80;0.70;;;;;;;-13.15;70.27;97530.54;106593;1275;24225;-61
2023/02/10 04:38:34;;;;;;;1.80;0.80;;;;;;;-13.25;69.97;97533.16;106631;1275;24378;-62
2023/02/10 04:41:05;;;;;;;6.10;3.10;;;;;;;-13.35;69.91;97533.65;106641;1275;21831;-62
2023/02/10 04:43:33;;;;;;;3.10;1.20;;;;;;;-13.39;69.90;97533.50;106614;1275;22720;-62
2023/02/10 04:46:04;;;;;;;1.80;0.90;;;;;;;-13.35;70.39;97528.20;106598;1275;22641;-62
2023/02/10 04:48:34;;;;;;;0.80;0.60;;;;;;;-13.22;70.62;97522.41;106635;1275;22545;-61
2023/02/10 04:51:10;;;;;;;0.80;0.70;;;;;;;-13.18;70.50;97515.37;106722;1275;22580;-61
2023/02/10 04:53:40;;;;;;;3.30;1.70;;;;;;;-13.35;69.59;97517.39;106603;1275;22655;-61
2023/02/10 04:56:08;;;;;;;3.40;0.90;;;;;;;-13.52;69.64;97516.15;106738;1275;25589;-61
2023/02/10 04:58:37;;;;;;;12.60;6.60;;;;;;;-13.56;70.60;97525.03;106632;1274;24293;-61
2023/02/10 05:01:06;;;;;;;13.20;7.10;;;;;;;-13.56;70.45;97520.10;106575;1275;24382;-61
2023/02/10 05:03:34;;;;;;;11.50;6.20;;;;;;;-13.54;70.52;97527.25;106573;1275;22568;-61
2023/02/10 05:06:08;;;;;;;2.20;1.30;;;;;;;-13.56;70.53;97527.94;106605;1275;22544;-61
2023/02/10 05:08:40;;;;;;;1.50;0.70;;;;;;;-13.62;70.49;97535.45;105720;1260;1134282;-61
2023/02/10 05:11:11;;;;;;;2.70;1.20;;;;;;;-13.67;70.59;97534.20;106651;1275;22679;-61
2023/02/10 05:13:40;;;;;;;0.80;0.40;;;;;;;-13.76;70.62;97536.89;106647;1275;22589;-61
2023/02/10 05:16:10;;;;;;;0.90;0.50;;;;;;;-13.80;70.96;97536.45;106691;1275;24257;-61
2023/02/10 05:18:42;;;;;;;2.60;1.10;;;;;;;-13.73;71.28;97541.41;106629;1275;24499;-61
2023/02/10 05:21:12;;;;;;;2.30;0.70;;;;;;;-13.69;71.28;97534.55;106620;1275;25264;-61
2023/02/10 05:23:41;;;;;;;16.10;6.20;;;;;;;-13.74;71.00;97541.29;106641;1275;25597;-61
2023/02/10 05:26:12;;;;;;;3.70;1.90;;;;;;;-13.94;70.87;97541.77;106622;1275;25549;-61
2023/02/10 05:28:43;;;;;;;2.10;1.00;;;;;;;-13.98;70.86;97546.04;106588;1275;25412;-61
2023/02/10 05:31:11;;;;;;;3.20;1.10;;;;;;;-13.90;71.83;97550.90;106646;1275;22539;-61
2023/02/10 05:33:39;;;;;;;2.90;1.40;;;;;;;-13.80;72.37;97548.77;106609;1275;22569;-61
2023/02/10 05:36:09;;;;;;;4.90;2.60;;;;;;;-13.64;72.28;97549.89;106579;1275;25464;-61
2023/02/10 05:38:37;;;;;;;1.50;1.20;;;;;;;-13.55;71.64;97549.21;106667;1275;25545;-61
2023/02/10 05:41:05;;;;;;;3.30;1.20;;;;;;;-13.62;70.79;97549.17;106944;1275;22691;-61
2023/02/10 05:43:33;;;;;;;4.70;1.70;;;;;;;-13.75;70.57;97547.94;106610;1275;22547;-61
2023/02/10 05:46:05;;;;;;;2.00;1.30;;;;;;;-13.74;71.22;97545.20;106603;1275;24239;-61
2023/02/10 05:48:33;;;;;;;2.50;0.90;;;;;;;-13.70;70.99;97548.27;106648;1275;22640;-61
2023/02/10 05:51:01;;;;;;;18.10;6.80;;;;;;;-13.76;70.65;97548.67;106618;1275;22531;-61
2023/02/10 05:53:29;;;;;;;33.50;13.10;;;;;;;-13.81;71.06;97537.90;106573;1275;24248;-61
2023/02/10 05:55:57;;;;;;;8.80;3.90;;;;;;;-13.78;71.62;97541.85;106573;1275;21792;-61
2023/02/10 05:58:27;;;;;;;4.90;2.00;;;;;;;-13.74;71.77;97548.21;106571;1275;24358;-61
2023/02/10 06:00:55;;;;;;;16.60;7.50;;;;;;;-13.67;71.64;97546.20;106619;1275;22559;-61
2023/02/10 06:03:24;;;;;;;6.70;1.20;;;;;;;-13.67;71.07;97547.00;106518;1275;24373;-63
2023/02/10 06:05:52;;;;;;;1.60;0.80;;;;;;;-13.59;71.53;97544.70;106664;1275;23179;-62
2023/02/10 06:08:20;;;;;;;2.40;1.10;;;;;;;-13.52;71.16;97541.59;106657;1275;22649;-62
2023/02/10 06:10:48;;;;;;;6.70;2.60;;;;;;;-13.59;71.20;97544.55;106541;1275;25278;-67
2023/02/10 06:13:16;;;;;;;44.80;18.70;;;;;;;-13.53;71.74;97551.06;106510;1275;24250;-67
2023/02/10 06:15:45;;;;;;;40.20;16.80;;;;;;;-13.45;70.29;97554.55;106569;1275;26843;-65
2023/02/10 06:18:14;;;;;;;53.40;18.20;;;;;;;-13.37;70.53;97555.63;106615;1275;22714;-64
2023/02/10 06:20:45;;;;;;;1.60;0.90;;;;;;;-13.25;70.58;97553.23;106590;1274;22558;-66
2023/02/10 06:23:14;;;;;;;44.00;16.60;;;;;;;-13.32;70.12;97557.25;106860;1275;25683;-66
2023/02/10 06:25:43;;;;;;;62.50;26.50;;;;;;;-13.38;70.38;97556.50;106562;1275;24265;-67
2023/02/10 06:28:11;;;;;;;62.60;25.80;;;;;;;-13.38;70.61;97558.50;106512;1269;24200;-70
2023/02/10 06:30:41;;;;;;;77.30;34.20;;;;;;;-13.38;70.34;97564.48;106798;1274;25642;-67
2023/02/10 06:33:09;;;;;;;34.90;13.60;;;;;;;-13.33;70.65;97568.40;106752;1269;24367;-70
2023/02/10 06:35:38;;;;;;;12.70;5.20;;;;;;;-13.26;70.72;97568.06;106602;1272;24054;-68
2023/02/10 06:38:06;;;;;;;1.80;0.90;;;;;;;-13.20;70.88;97562.70;106556;1253;22730;-68
2023/02/10 06:40:34;;;;;;;21.10;11.30;;;;;;;-13.16;70.75;97564.62;106591;1269;22657;-67
2023/02/10 06:43:03;;;;;;;87.70;36.40;;;;;;;-13.07;71.93;97564.05;106546;1269;22572;-67
2023/02/10 06:45:32;;;;;;;34.10;15.50;;;;;;;-12.83;72.14;97567.58;106462;1276;22743;-67
2023/02/10 06:48:04;;;;;;;85.10;35.50;;;;;;;-12.63;71.66;97567.52;106568;1276;22655;-67
2023/02/10 06:50:32;;;;;;;57.70;23.50;;;;;;;-12.44;71.74;97574.98;106584;1271;22554;-63
2023/02/10 06:53:01;;;;;;;39.20;9.40;;;;;;;-12.35;71.19;97574.14;106396;1268;22832;-65
2023/02/10 06:55:29;;;;;;;7.00;4.20;;;;;;;-12.24;71.32;97575.51;106656;1276;22681;-66
2023/02/10 06:57:59;;;;;;;9.20;3.60;;;;;;;-12.12;70.82;97577.52;106667;1276;25677;-66
2023/02/10 07:00:27;;;;;;;7.70;3.00;;;;;;;-12.06;70.42;97578.66;106562;1276;25960;-67
2023/02/10 07:02:55;;;;;;;6.00;2.20;;;;;;;-11.90;70.63;97581.02;106554;1276;25423;-64
2023/02/10 07:05:24;;;;;;;31.40;15.80;;;;;;;-11.78;70.04;97578.25;106698;1252;22905;-66
2023/02/10 07:07:53;;;;;;;27.80;12.80;;;;;;;-11.70;70.08;97578.21;106559;1276;22680;-69
2023/02/10 07:10:21;;;;;;;19.80;8.70;;;;;;;-11.50;70.32;97581.46;106649;1276;22937;-69
2023/02/10 07:12:51;;;;;;;29.40;13.20;;;;;;;-11.33;70.01;97572.80;106625;1276;24193;-67
2023/02/10 07:15:22;;;;;;;30.30;14.50;;;;;;;-11.14;69.86;97571.66;106519;1252;24267;-67
2023/02/10 07:17:51;;;;;;;31.40;15.70;;;;;;;-10.81;69.61;97567.03;106583;1276;22644;-63
2023/02/10 07:20:21;;;;;;;30.70;15.80;;;;;;;-10.42;68.61;97564.30;106475;1276;22616;-64
2023/02/10 07:22:50;;;;;;;27.00;10.30;;;;;;;-10.24;67.24;97564.08;106542;1276;25471;-63
2023/02/10 07:25:19;;;;;;;24.70;12.20;;;;;;;-10.19;67.15;97567.77;106566;1252;25479;-66
2023/02/10 07:27:47;;;;;;;25.70;12.30;;;;;;;-10.07;67.11;97569.56;106739;1276;24215;-66
2023/02/10 07:30:15;;;;;;;28.90;13.50;;;;;;;-9.91;66.97;97571.33;106547;1276;22839;-64
2023/02/10 07:32:44;;;;;;;22.50;11.00;;;;;;;-9.78;66.86;97569.95;106497;1276;25507;-68
2023/02/10 07:35:12;;;;;;;42.10;22.50;;;;;;;-9.65;66.41;97573.36;106422;1276;25464;-67
2023/02/10 07:37:40;;;;;;;31.50;15.60;;;;;;;-9.41;65.28;97577.52;106823;1276;22650;-67
2023/02/10 07:40:10;;;;;;;29.90;16.20;;;;;;;-9.14;64.70;97580.60;106524;1276;24263;-66
2023/02/10 07:42:38;;;;;;;33.10;17.70;;;;;;;-9.01;63.99;97576.53;106544;1253;23133;-68
2023/02/10 07:45:19;;;;;;;55.80;31.40;;;;;;;-9.05;64.44;97576.77;106650;1271;24297;-69
2023/02/10 07:47:47;;;;;;;29.60;15.30;;;;;;;-8.92;65.01;97572.34;106683;1271;22811;-67
2023/02/10 07:50:15;;;;;;;23.10;11.90;;;;;;;-8.55;64.84;97572.13;106380;1273;22746;-69
2023/02/10 07:52:43;;;;;;;27.90;14.40;;;;;;;-8.15;64.90;97566.55;106487;1269;22885;-66
2023/02/10 07:55:12;;;;;;;24.50;12.80;;;;;;;-7.76;63.08;97560.31;106498;1268;22714;-66
2023/02/10 07:57:41;;;;;;;20.50;11.80;;;;;;;-7.46;62.70;97555.61;106820;1271;25499;-68
2023/02/10 08:00:12;;;;;;;19.90;10.30;;;;;;;-7.17;61.15;97557.20;106852;1269;22647;-69
2023/02/10 08:02:40;;;;;;;17.40;7.50;;;;;;;-6.94;59.97;97559.06;107149;1275;25572;-70
2023/02/10 08:05:09;;;;;;;20.40;7.90;;;;;;;-6.63;58.98;97554.35;106853;1273;22586;-70
2023/02/10 08:07:37;;;;;;;21.30;9.50;;;;;;;-6.46;57.08;97544.70;106655;1268;25563;-74
2023/02/10 08:10:06;;;;;;;21.00;12.40;;;;;;;-6.37;57.49;97537.89;106481;1275;22673;-68
2023/02/10 08:12:34;;;;;;;22.70;11.20;;;;;;;-6.22;57.85;97540.02;106546;1274;23092;-67
2023/02/10 08:15:03;;;;;;;27.60;14.20;;;;;;;-6.05;58.68;97542.01;106498;1269;25562;-66
2023/02/10 08:17:31;;;;;;;27.80;13.40;;;;;;;-5.85;57.59;97540.06;106568;1269;25545;-70
2023/02/10 08:19:59;;;;;;;26.90;14.60;;;;;;;-5.66;57.78;97536.35;106754;1269;25550;-72
2023/02/10 08:22:28;;;;;;;19.70;9.80;;;;;;;-5.37;58.26;97531.48;106669;1271;22657;-68
2023/02/10 08:24:56;;;;;;;15.40;8.80;;;;;;;-5.00;58.11;97521.82;106269;1269;23252;-71
2023/02/10 08:27:24;;;;;;;21.10;10.70;;;;;;;-4.72;58.24;97519.31;106894;1268;22660;-70
2023/02/10 08:29:52;;;;;;;19.80;11.20;;;;;;;-4.37;58.43;97513.70;106847;1276;22516;-73
2023/02/10 08:32:22;;;;;;;21.70;11.10;;;;;;;-4.12;57.38;97506.52;106568;1276;24258;-70
2023/02/10 08:34:50;;;;;;;19.40;10.60;;;;;;;-3.93;55.77;97506.57;106583;1276;22524;-74
2023/02/10 08:37:18;;;;;;;23.40;13.30;;;;;;;-3.86;55.26;97505.17;106924;1276;24865;-68
2023/02/10 08:39:46;;;;;;;27.20;14.70;;;;;;;-3.81;54.36;97502.93;106744;1276;22543;-68
2023/02/10 08:42:15;;;;;;;27.50;14.90;;;;;;;-3.73;54.40;97502.43;106684;1276;22841;-68
2023/02/10 08:44:43;;;;;;;32.20;17.20;;;;;;;-3.67;54.42;97496.11;107027;1276;24205;-66
2023/02/10 08:47:14;;;;;;;23.00;15.60;;;;;;;-3.55;54.52;97497.47;106542;1276;22542;-71
2023/02/10 08:49:42;;;;;;;19.50;11.30;;;;;;;-3.40;53.59;97502.56;106589;1276;24177;-66
2023/02/10 08:52:11;;;;;;;22.10;12.40;;;;;;;-3.38;53.13;97500.95;106590;1276;25489;-68
2023/02/10 08:54:39;;;;;;;21.90;13.00;;;;;;;-3.20;53.85;97505.92;106544;1276;22520;-68
2023/02/10 08:57:07;;;;;;;23.50;14.10;;;;;;;-3.02;53.66;97504.44;106451;1276;22644;-66
2023/02/10 08:59:36;;;;;;;31.00;17.00;;;;;;;-2.91;52.59;97496.92;106566;1276;24241;-68
2023/02/10 09:02:04;;;;;;;29.80;17.10;;;;;;;-2.85;52.39;97493.16;106555;1276;24291;-66
2023/02/10 09:04:32;;;;;;;41.30;25.60;;;;;;;-2.81;52.88;97492.89;106587;1276;22611;-65
2023/02/10 09:07:00;;;;;;;33.10;18.40;;;;;;;-2.58;53.19;97495.38;106449;1275;25500;-68
2023/02/10 09:09:29;;;;;;;26.60;15.70;;;;;;;-2.36;52.61;97490.17;106585;1275;22563;-70
2023/02/10 09:11:57;;;;;;;28.70;16.20;;;;;;;-2.16;52.17;97494.36;106884;1275;24349;-66
2023/02/10 09:14:25;;;;;;;26.30;14.40;;;;;;;-1.91;51.75;97487.73;106541;1269;22632;-68
2023/02/10 09:16:53;;;;;;;34.30;19.90;;;;;;;-1.72;51.97;97487.18;106769;1271;22536;-68
2023/02/10 09:19:23;;;;;;;33.20;18.00;;;;;;;-1.63;50.29;97486.61;106754;1268;22533;-70
2023/02/10 09:21:51;;;;;;;30.40;17.20;;;;;;;-1.55;50.84;97482.44;106702;1269;25390;-71
2023/02/10 09:24:19;;;;;;;28.70;16.30;;;;;;;-1.31;51.26;97478.28;106663;1270;24291;-68
2023/02/10 09:26:47;;;;;;;29.60;16.20;;;;;;;-1.03;51.24;97472.81;106808;1271;24229;-71
2023/02/10 09:29:15;;;;;;;25.00;14.30;;;;;;;-0.76;50.71;97468.77;106537;1275;22528;-78
2023/02/10 09:31:44;;;;;;;20.10;11.10;;;;;;;-0.59;50.40;97464.89;106668;1269;22779;-68
2023/02/10 09:34:12;;;;;;;25.20;13.80;;;;;;;-0.55;49.38;97460.78;106681;1269;25614;-68
2023/02/10 09:36:40;;;;;;;20.40;11.40;;;;;;;-0.47;49.77;97460.20;106392;1274;22546;-69
2023/02/10 09:39:09;;;;;;;20.30;11.80;;;;;;;-0.32;49.57;97453.69;106749;1265;22576;-64
2023/02/10 09:41:45;;;;;;;20.70;11.20;;;;;;;-0.16;49.53;97451.44;106317;1265;22523;-66
2023/02/10 09:44:19;;;;;;;20.90;10.90;;;;;;;0.02;48.88;97448.20;106758;1275;22529;-69
2023/02/10 09:47:13;;;;;;;17.50;10.30;;;;;;;0.23;49.03;97440.48;106674;1275;24256;-75
2023/02/10 09:49:47;;;;;;;15.10;8.90;;;;;;;0.40;47.64;97442.38;107028;1275;22532;-70
2023/02/10 09:52:22;;;;;;;15.80;9.00;;;;;;;0.49;46.80;97436.95;107036;1275;24404;-69
2023/02/10 09:54:50;;;;;;;19.40;9.10;;;;;;;0.67;47.54;97432.80;106922;1275;25478;-67
2023/02/10 09:57:49;;;;;;;17.10;9.30;;;;;;;0.92;46.79;97427.07;106597;1275;24281;-73
2023/02/10 10:00:29;;;;;;;18.10;9.50;;;;;;;1.07;46.67;97426.23;106830;1275;22910;-67
2023/02/10 10:02:58;;;;;;;14.50;9.30;;;;;;;1.21;46.52;97420.30;106629;1275;22730;-70
2023/02/10 10:05:45;;;;;;;15.70;8.70;;;;;;;1.39;45.86;97415.58;106353;1269;22546;-72
2023/02/10 10:08:29;;;;;;;13.30;7.80;;;;;;;1.56;44.99;97416.20;106661;1271;22672;-69
2023/02/10 10:11:03;;;;;;;12.10;7.50;;;;;;;1.63;44.09;97418.08;106645;1269;22527;-69
2023/02/10 10:13:32;;;;;;;13.90;7.70;;;;;;;1.78;43.90;97421.70;106795;1271;22524;-70
2023/02/10 10:16:06;;;;;;;15.80;8.70;;;;;;;1.89;43.64;97421.84;106761;1268;25022;-70
2023/02/10 10:18:50;;;;;;;13.80;8.60;;;;;;;2.05;43.78;97421.52;106637;1274;25412;-69
2023/02/10 10:21:31;;;;;;;14.50;8.20;;;;;;;2.15;43.09;97417.41;106673;1268;22577;-70
2023/02/10 10:24:15;;;;;;;14.10;7.90;;;;;;;2.21;43.22;97412.99;106647;1269;25281;-70
2023/02/10 10:26:52;;;;;;;16.10;7.90;;;;;;;2.28;42.09;97411.22;106663;1275;22537;-69
2023/02/10 10:29:30;;;;;;;14.60;9.00;;;;;;;2.47;41.14;97408.36;106664;1275;22648;-69
2023/02/10 10:32:13;;;;;;;16.20;9.30;;;;;;;2.86;41.40;97405.94;106636;1275;23878;-68
2023/02/10 10:34:50;;;;;;;13.40;7.80;;;;;;;3.38;39.64;97397.06;106607;1275;25683;-68
2023/02/10 10:37:22;;;;;;;12.20;7.60;;;;;;;3.65;38.28;97393.39;106684;1275;25410;-69
2023/02/10 10:40:01;;;;;;;13.80;8.30;;;;;;;4.02;37.62;97387.02;106674;1275;22547;-69
2023/02/10 10:42:41;;;;;;;11.00;6.60;;;;;;;4.48;37.66;97384.84;106695;1275;22531;-69
2023/02/10 10:45:18;;;;;;;8.40;5.40;;;;;;;4.77;35.35;97379.33;106681;1275;24284;-69
2023/02/10 10:47:59;;;;;;;10.90;5.80;;;;;;;4.96;34.21;97375.58;106613;1275;24265;-69
2023/02/10 10:50:27;;;;;;;6.80;4.80;;;;;;;5.22;33.41;97372.73;106683;1275;22527;-68
2023/02/10 10:52:57;;;;;;;7.00;5.10;;;;;;;5.57;33.55;97372.73;106552;1275;22537;-68
2023/02/10 10:55:39;;;;;;;8.80;5.70;;;;;;;5.71;32.34;97370.70;106685;1275;24448;-68
2023/02/10 10:58:39;;;;;;;8.40;5.90;;;;;;;6.05;32.50;97372.02;106674;1275;25357;-68
2023/02/10 11:01:07;;;;;;;9.30;6.10;;;;;;;6.50;32.77;97364.13;106633;1275;22524;-68
2023/02/10 11:03:35;;;;;;;9.00;6.40;;;;;;;6.91;31.91;97355.52;106636;1275;22641;-68
2023/02/10 11:06:09;;;;;;;9.50;7.00;;;;;;;7.18;30.69;97353.89;106544;1275;22528;-68
2023/02/10 11:08:41;;;;;;;;;;;;;;;7.49;29.71;97352.81;106624;1275;24252;-68
2023/02/10 11:11:13;;;;;;;9.90;6.50;;;;;;;7.35;29.32;97349.89;106566;1275;22780;-70
2023/02/10 11:14:02;;;;;;;11.00;7.70;;;;;;;7.49;29.79;97349.14;106626;1275;25242;-69
2023/02/10 11:16:41;;;;;;;14.30;8.30;;;;;;;7.62;29.43;97347.67;106614;1275;25359;-69
2023/02/10 11:19:22;;;;;;;11.80;8.20;;;;;;;8.00;29.28;97345.45;106705;1275;24392;-70
2023/02/10 11:21:51;;;;;;;10.50;8.00;;;;;;;8.07;29.00;97341.04;106589;1275;22614;-69
2023/02/10 11:24:25;;;;;;;14.30;10.20;;;;;;;8.15;28.67;97339.95;106670;1275;22691;-70
2023/02/10 11:26:54;;;;;;;17.10;11.20;;;;;;;8.38;28.93;97342.16;106748;1275;22521;-70
2023/02/10 11:29:23;;;;;;;12.50;9.30;;;;;;;8.51;28.37;97342.92;106665;1275;22540;-70
2023/02/10 11:31:53;;;;;;;12.20;8.30;;;;;;;8.47;28.19;97349.17;106676;1275;25383;-70
2023/02/10 11:34:30;;;;;;;10.20;7.10;;;;;;;8.52;27.81;97350.64;106657;1275;24247;-70
2023/02/10 11:37:09;;;;;;;12.70;8.20;;;;;;;8.41;26.94;97343.77;106681;1275;22732;-70